sensor_id;sensor_type;location;lat;lon;timestamp;P1;durP1;ratioP1;P2;durP2;ratioP2
74383;SDS011;62824;52.994;-3.936;2022-12-29T00:02:23;1.52;;;0.52;;
74383;SDS011;62824;52.994;-3.936;2022-12-29T00:04:49;0.60;;;0.10;;
74383;SDS011;62824;52.994;-3.936;2022-12-29T00:07:16;0.40;;;0.30;;
74383;SDS011;62824;52.994;-3.936;2022-12-29T00:09:42;0.98;;;0.10;;
74383;SDS011;62824;52.994;-3.936;2022-12-29T00:12:08;0.38;;;0.30;;
74383;SDS011;62824;52.994;-3.936;2022-12-29T00:14:33;0.35;;;0.20;;
74383;SDS011;62824;52.994;-3.936;2022-12-29T00:17:18;0.35;;;0.30;;
74383;SDS011;62824;52.994;-3.936;2022-12-29T00:19:44;0.00;;;0.00;;
74383;SDS011;62824;52.994;-3.936;2022-12-29T00:22:28;0.22;;;0.10;;
74383;SDS011;62824;52.994;-3.936;2022-12-29T00:25:12;0.10;;;0.10;;
74383;SDS011;62824;52.994;-3.936;2022-12-29T00:27:57;0.20;;;0.10;;
74383;SDS011;62824;52.994;-3.936;2022-12-29T00:30:44;1.25;;;0.32;;
74383;SDS011;62824;52.994;-3.936;2022-12-29T00:33:29;0.43;;;0.30;;
74383;SDS011;62824;52.994;-3.936;2022-12-29T00:36:16;0.70;;;0.30;;
74383;SDS011;62824;52.994;-3.936;2022-12-29T00:38:56;0.45;;;0.13;;
74383;SDS011;62824;52.994;-3.936;2022-12-29T00:42:07;0.30;;;0.30;;
74383;SDS011;62824;52.994;-3.936;2022-12-29T00:44:53;0.75;;;0.50;;
74383;SDS011;62824;52.994;-3.936;2022-12-29T00:47:18;5.90;;;0.70;;
74383;SDS011;62824;52.994;-3.936;2022-12-29T00:49:47;0.40;;;0.40;;
74383;SDS011;62824;52.994;-3.936;2022-12-29T00:56:04;1.50;;;0.65;;
74383;SDS011;62824;52.994;-3.936;2022-12-29T00:58:30;0.95;;;0.50;;
74383;SDS011;62824;52.994;-3.936;2022-12-29T01:01:02;3.10;;;0.50;;
74383;SDS011;62824;52.994;-3.936;2022-12-29T01:03:29;3.83;;;1.83;;
74383;SDS011;62824;52.994;-3.936;2022-12-29T01:05:55;1.63;;;0.40;;
74383;SDS011;62824;52.994;-3.936;2022-12-29T01:08:21;0.70;;;0.30;;
74383;SDS011;62824;52.994;-3.936;2022-12-29T01:10:56;0.75;;;0.30;;
74383;SDS011;62824;52.994;-3.936;2022-12-29T01:13:26;1.15;;;0.52;;
74383;SDS011;62824;52.994;-3.936;2022-12-29T01:15:52;1.45;;;0.40;;
74383;SDS011;62824;52.994;-3.936;2022-12-29T01:18:19;0.45;;;0.45;;
74383;SDS011;62824;52.994;-3.936;2022-12-29T01:20:45;1.52;;;0.57;;
74383;SDS011;62824;52.994;-3.936;2022-12-29T01:23:11;2.63;;;0.82;;
74383;SDS011;62824;52.994;-3.936;2022-12-29T01:25:37;1.02;;;0.50;;
74383;SDS011;62824;52.994;-3.936;2022-12-29T01:28:03;1.05;;;0.43;;
74383;SDS011;62824;52.994;-3.936;2022-12-29T01:30:29;0.52;;;0.20;;
74383;SDS011;62824;52.994;-3.936;2022-12-29T01:32:55;0.55;;;0.30;;
74383;SDS011;62824;52.994;-3.936;2022-12-29T01:35:21;2.13;;;0.70;;
74383;SDS011;62824;52.994;-3.936;2022-12-29T01:37:46;1.27;;;0.57;;
74383;SDS011;62824;52.994;-3.936;2022-12-29T01:40:12;0.43;;;0.22;;
74383;SDS011;62824;52.994;-3.936;2022-12-29T01:42:38;2.45;;;0.50;;
74383;SDS011;62824;52.994;-3.936;2022-12-29T01:45:11;1.45;;;0.50;;
74383;SDS011;62824;52.994;-3.936;2022-12-29T01:47:44;0.60;;;0.60;;
74383;SDS011;62824;52.994;-3.936;2022-12-29T01:50:19;3.50;;;0.80;;
74383;SDS011;62824;52.994;-3.936;2022-12-29T01:52:50;3.28;;;0.70;;
74383;SDS011;62824;52.994;-3.936;2022-12-29T01:55:25;0.95;;;0.30;;
74383;SDS011;62824;52.994;-3.936;2022-12-29T01:57:52;1.95;;;0.70;;
74383;SDS011;62824;52.994;-3.936;2022-12-29T02:00:20;1.55;;;0.50;;
74383;SDS011;62824;52.994;-3.936;2022-12-29T02:02:51;0.32;;;0.32;;
74383;SDS011;62824;52.994;-3.936;2022-12-29T02:08:09;1.58;;;0.60;;
74383;SDS011;62824;52.994;-3.936;2022-12-29T02:10:37;2.05;;;0.90;;
74383;SDS011;62824;52.994;-3.936;2022-12-29T02:13:04;1.45;;;0.50;;
74383;SDS011;62824;52.994;-3.936;2022-12-29T02:15:46;0.50;;;0.40;;
74383;SDS011;62824;52.994;-3.936;2022-12-29T02:18:29;0.80;;;0.45;;
74383;SDS011;62824;52.994;-3.936;2022-12-29T02:46:58;2.67;;;0.90;;
74383;SDS011;62824;52.994;-3.936;2022-12-29T02:49:33;2.47;;;0.70;;
74383;SDS011;62824;52.994;-3.936;2022-12-29T02:52:06;1.63;;;0.85;;
74383;SDS011;62824;52.994;-3.936;2022-12-29T02:54:37;0.65;;;0.65;;
74383;SDS011;62824;52.994;-3.936;2022-12-29T02:57:13;0.63;;;0.47;;
74383;SDS011;62824;52.994;-3.936;2022-12-29T02:59:45;1.35;;;0.80;;
74383;SDS011;62824;52.994;-3.936;2022-12-29T03:05:10;5.00;;;0.70;;
74383;SDS011;62824;52.994;-3.936;2022-12-29T03:07:50;3.10;;;0.80;;
74383;SDS011;62824;52.994;-3.936;2022-12-29T03:10:36;6.03;;;0.90;;
74383;SDS011;62824;52.994;-3.936;2022-12-29T03:16:23;1.98;;;0.80;;
74383;SDS011;62824;52.994;-3.936;2022-12-29T03:18:58;3.60;;;0.80;;
74383;SDS011;62824;52.994;-3.936;2022-12-29T03:24:17;5.25;;;0.70;;
74383;SDS011;62824;52.994;-3.936;2022-12-29T03:26:47;1.95;;;0.90;;
74383;SDS011;62824;52.994;-3.936;2022-12-29T03:29:14;2.55;;;1.10;;
74383;SDS011;62824;52.994;-3.936;2022-12-29T03:31:41;4.13;;;0.70;;
74383;SDS011;62824;52.994;-3.936;2022-12-29T03:34:08;3.22;;;0.70;;
74383;SDS011;62824;52.994;-3.936;2022-12-29T03:36:39;2.08;;;1.38;;
74383;SDS011;62824;52.994;-3.936;2022-12-29T03:39:12;3.42;;;0.90;;
74383;SDS011;62824;52.994;-3.936;2022-12-29T03:41:40;2.17;;;0.80;;
74383;SDS011;62824;52.994;-3.936;2022-12-29T03:44:09;4.75;;;1.00;;
74383;SDS011;62824;52.994;-3.936;2022-12-29T03:46:36;1.80;;;0.90;;
74383;SDS011;62824;52.994;-3.936;2022-12-29T03:49:02;1.38;;;0.95;;
74383;SDS011;62824;52.994;-3.936;2022-12-29T03:51:28;0.80;;;0.80;;
74383;SDS011;62824;52.994;-3.936;2022-12-29T03:57:29;3.50;;;0.80;;
74383;SDS011;62824;52.994;-3.936;2022-12-29T03:59:55;0.85;;;0.77;;
74383;SDS011;62824;52.994;-3.936;2022-12-29T04:02:21;1.55;;;0.73;;
74383;SDS011;62824;52.994;-3.936;2022-12-29T04:04:47;3.20;;;1.00;;
74383;SDS011;62824;52.994;-3.936;2022-12-29T04:07:12;3.63;;;0.68;;
74383;SDS011;62824;52.994;-3.936;2022-12-29T04:09:38;3.22;;;0.80;;
74383;SDS011;62824;52.994;-3.936;2022-12-29T04:12:04;2.95;;;0.80;;
74383;SDS011;62824;52.994;-3.936;2022-12-29T04:14:30;1.90;;;0.82;;
74383;SDS011;62824;52.994;-3.936;2022-12-29T04:16:55;4.25;;;1.00;;
74383;SDS011;62824;52.994;-3.936;2022-12-29T04:19:21;2.40;;;0.90;;
74383;SDS011;62824;52.994;-3.936;2022-12-29T04:21:47;3.53;;;0.90;;
74383;SDS011;62824;52.994;-3.936;2022-12-29T04:24:12;4.88;;;0.82;;
74383;SDS011;62824;52.994;-3.936;2022-12-29T04:26:38;2.28;;;0.90;;
74383;SDS011;62824;52.994;-3.936;2022-12-29T04:29:04;6.10;;;1.10;;
74383;SDS011;62824;52.994;-3.936;2022-12-29T04:31:30;2.50;;;1.10;;
74383;SDS011;62824;52.994;-3.936;2022-12-29T04:33:55;4.18;;;1.10;;
74383;SDS011;62824;52.994;-3.936;2022-12-29T04:36:22;2.95;;;0.90;;
74383;SDS011;62824;52.994;-3.936;2022-12-29T04:38:48;3.40;;;1.08;;
74383;SDS011;62824;52.994;-3.936;2022-12-29T04:41:14;3.88;;;0.93;;
74383;SDS011;62824;52.994;-3.936;2022-12-29T04:43:40;5.45;;;1.02;;
74383;SDS011;62824;52.994;-3.936;2022-12-29T04:46:05;4.55;;;1.23;;
74383;SDS011;62824;52.994;-3.936;2022-12-29T04:48:31;2.38;;;0.80;;
74383;SDS011;62824;52.994;-3.936;2022-12-29T04:50:57;3.28;;;0.88;;
74383;SDS011;62824;52.994;-3.936;2022-12-29T04:53:23;4.97;;;1.05;;
74383;SDS011;62824;52.994;-3.936;2022-12-29T04:55:52;5.00;;;1.13;;
74383;SDS011;62824;52.994;-3.936;2022-12-29T04:58:18;4.55;;;1.00;;
74383;SDS011;62824;52.994;-3.936;2022-12-29T05:00:45;3.53;;;1.38;;
74383;SDS011;62824;52.994;-3.936;2022-12-29T05:03:10;5.53;;;1.27;;
74383;SDS011;62824;52.994;-3.936;2022-12-29T05:05:36;4.90;;;1.10;;
74383;SDS011;62824;52.994;-3.936;2022-12-29T05:08:02;3.65;;;1.48;;
74383;SDS011;62824;52.994;-3.936;2022-12-29T05:10:28;8.88;;;1.50;;
74383;SDS011;62824;52.994;-3.936;2022-12-29T05:12:54;2.30;;;0.60;;
74383;SDS011;62824;52.994;-3.936;2022-12-29T05:15:20;4.40;;;1.00;;
74383;SDS011;62824;52.994;-3.936;2022-12-29T05:17:46;1.77;;;0.80;;
74383;SDS011;62824;52.994;-3.936;2022-12-29T05:23:03;1.23;;;0.63;;
74383;SDS011;62824;52.994;-3.936;2022-12-29T05:25:28;2.10;;;0.80;;
74383;SDS011;62824;52.994;-3.936;2022-12-29T05:27:54;5.40;;;0.80;;
74383;SDS011;62824;52.994;-3.936;2022-12-29T05:30:20;2.00;;;0.80;;
74383;SDS011;62824;52.994;-3.936;2022-12-29T05:32:45;2.33;;;0.55;;
74383;SDS011;62824;52.994;-3.936;2022-12-29T05:35:11;2.55;;;0.70;;
74383;SDS011;62824;52.994;-3.936;2022-12-29T05:37:37;0.65;;;0.38;;
74383;SDS011;62824;52.994;-3.936;2022-12-29T05:40:03;2.97;;;0.77;;
74383;SDS011;62824;52.994;-3.936;2022-12-29T05:42:29;2.90;;;0.65;;
74383;SDS011;62824;52.994;-3.936;2022-12-29T05:44:55;4.60;;;0.80;;
74383;SDS011;62824;52.994;-3.936;2022-12-29T05:47:21;3.00;;;0.68;;
74383;SDS011;62824;52.994;-3.936;2022-12-29T05:49:47;3.70;;;0.80;;
74383;SDS011;62824;52.994;-3.936;2022-12-29T05:52:12;4.47;;;1.38;;
74383;SDS011;62824;52.994;-3.936;2022-12-29T05:54:38;3.92;;;1.30;;
74383;SDS011;62824;52.994;-3.936;2022-12-29T05:57:04;2.67;;;0.60;;
74383;SDS011;62824;52.994;-3.936;2022-12-29T05:59:30;2.72;;;1.00;;
74383;SDS011;62824;52.994;-3.936;2022-12-29T06:01:55;1.48;;;0.55;;
74383;SDS011;62824;52.994;-3.936;2022-12-29T06:04:21;3.55;;;0.70;;
74383;SDS011;62824;52.994;-3.936;2022-12-29T06:06:47;2.45;;;0.82;;
74383;SDS011;62824;52.994;-3.936;2022-12-29T06:09:12;3.13;;;0.88;;
74383;SDS011;62824;52.994;-3.936;2022-12-29T06:11:38;1.85;;;0.50;;
74383;SDS011;62824;52.994;-3.936;2022-12-29T06:14:04;3.85;;;1.00;;
74383;SDS011;62824;52.994;-3.936;2022-12-29T06:16:30;5.25;;;1.13;;
74383;SDS011;62824;52.994;-3.936;2022-12-29T06:18:55;1.98;;;0.60;;
74383;SDS011;62824;52.994;-3.936;2022-12-29T06:21:21;2.08;;;0.98;;
74383;SDS011;62824;52.994;-3.936;2022-12-29T06:23:47;3.58;;;0.65;;
74383;SDS011;62824;52.994;-3.936;2022-12-29T06:26:13;4.47;;;0.90;;
74383;SDS011;62824;52.994;-3.936;2022-12-29T06:28:39;2.13;;;1.45;;
74383;SDS011;62824;52.994;-3.936;2022-12-29T06:31:04;1.48;;;0.93;;
74383;SDS011;62824;52.994;-3.936;2022-12-29T06:33:33;2.70;;;0.73;;
74383;SDS011;62824;52.994;-3.936;2022-12-29T06:35:59;2.38;;;0.57;;
74383;SDS011;62824;52.994;-3.936;2022-12-29T06:41:38;3.28;;;0.65;;
74383;SDS011;62824;52.994;-3.936;2022-12-29T06:44:04;3.35;;;0.80;;
74383;SDS011;62824;52.994;-3.936;2022-12-29T06:46:30;7.20;;;0.95;;
74383;SDS011;62824;52.994;-3.936;2022-12-29T06:48:55;4.53;;;0.90;;
74383;SDS011;62824;52.994;-3.936;2022-12-29T06:51:21;4.90;;;0.93;;
74383;SDS011;62824;52.994;-3.936;2022-12-29T06:53:47;5.68;;;1.23;;
74383;SDS011;62824;52.994;-3.936;2022-12-29T06:56:12;3.83;;;1.00;;
74383;SDS011;62824;52.994;-3.936;2022-12-29T06:58:38;5.68;;;0.82;;
74383;SDS011;62824;52.994;-3.936;2022-12-29T07:01:04;3.90;;;0.82;;
74383;SDS011;62824;52.994;-3.936;2022-12-29T07:03:29;2.45;;;0.80;;
74383;SDS011;62824;52.994;-3.936;2022-12-29T07:05:55;4.70;;;0.95;;
74383;SDS011;62824;52.994;-3.936;2022-12-29T07:08:23;7.32;;;0.98;;
74383;SDS011;62824;52.994;-3.936;2022-12-29T07:10:49;6.70;;;0.75;;
74383;SDS011;62824;52.994;-3.936;2022-12-29T07:13:15;4.15;;;0.88;;
74383;SDS011;62824;52.994;-3.936;2022-12-29T07:15:40;8.20;;;1.13;;
74383;SDS011;62824;52.994;-3.936;2022-12-29T07:18:06;3.35;;;0.75;;
74383;SDS011;62824;52.994;-3.936;2022-12-29T07:20:32;2.72;;;0.80;;
74383;SDS011;62824;52.994;-3.936;2022-12-29T07:22:58;4.38;;;0.80;;
74383;SDS011;62824;52.994;-3.936;2022-12-29T07:25:24;6.38;;;0.80;;
74383;SDS011;62824;52.994;-3.936;2022-12-29T07:27:50;2.75;;;0.80;;
74383;SDS011;62824;52.994;-3.936;2022-12-29T07:30:16;5.78;;;1.10;;
74383;SDS011;62824;52.994;-3.936;2022-12-29T07:32:41;2.53;;;0.80;;
74383;SDS011;62824;52.994;-3.936;2022-12-29T07:35:07;5.63;;;1.20;;
74383;SDS011;62824;52.994;-3.936;2022-12-29T07:37:33;4.15;;;0.85;;
74383;SDS011;62824;52.994;-3.936;2022-12-29T07:40:00;4.40;;;1.05;;
74383;SDS011;62824;52.994;-3.936;2022-12-29T07:42:26;6.13;;;0.90;;
74383;SDS011;62824;52.994;-3.936;2022-12-29T07:48:27;3.45;;;0.80;;
74383;SDS011;62824;52.994;-3.936;2022-12-29T07:50:53;10.32;;;2.00;;
74383;SDS011;62824;52.994;-3.936;2022-12-29T07:53:19;4.55;;;1.10;;
74383;SDS011;62824;52.994;-3.936;2022-12-29T07:55:44;4.72;;;2.03;;
74383;SDS011;62824;52.994;-3.936;2022-12-29T07:58:10;7.10;;;1.98;;
74383;SDS011;62824;52.994;-3.936;2022-12-29T08:00:37;9.75;;;2.05;;
74383;SDS011;62824;52.994;-3.936;2022-12-29T08:03:04;4.72;;;1.00;;
74383;SDS011;62824;52.994;-3.936;2022-12-29T08:05:33;11.60;;;2.38;;
74383;SDS011;62824;52.994;-3.936;2022-12-29T08:07:59;6.47;;;1.63;;
74383;SDS011;62824;52.994;-3.936;2022-12-29T08:10:25;8.15;;;1.67;;
74383;SDS011;62824;52.994;-3.936;2022-12-29T08:12:51;8.15;;;1.48;;
74383;SDS011;62824;52.994;-3.936;2022-12-29T08:15:16;3.90;;;1.40;;
74383;SDS011;62824;52.994;-3.936;2022-12-29T08:17:42;4.50;;;1.33;;
74383;SDS011;62824;52.994;-3.936;2022-12-29T08:20:08;8.98;;;1.50;;
74383;SDS011;62824;52.994;-3.936;2022-12-29T08:22:34;9.10;;;1.30;;
74383;SDS011;62824;52.994;-3.936;2022-12-29T08:25:00;9.57;;;1.42;;
74383;SDS011;62824;52.994;-3.936;2022-12-29T08:27:26;11.43;;;2.03;;
74383;SDS011;62824;52.994;-3.936;2022-12-29T08:29:52;4.93;;;1.55;;
74383;SDS011;62824;52.994;-3.936;2022-12-29T08:35:35;8.32;;;1.90;;
74383;SDS011;62824;52.994;-3.936;2022-12-29T08:38:00;11.15;;;1.80;;
74383;SDS011;62824;52.994;-3.936;2022-12-29T08:40:26;5.80;;;1.23;;
74383;SDS011;62824;52.994;-3.936;2022-12-29T08:42:52;10.75;;;1.52;;
74383;SDS011;62824;52.994;-3.936;2022-12-29T08:45:17;8.23;;;2.13;;
74383;SDS011;62824;52.994;-3.936;2022-12-29T08:47:43;8.27;;;1.80;;
74383;SDS011;62824;52.994;-3.936;2022-12-29T08:50:09;5.28;;;1.20;;
74383;SDS011;62824;52.994;-3.936;2022-12-29T08:52:35;3.88;;;1.20;;
74383;SDS011;62824;52.994;-3.936;2022-12-29T08:55:00;3.17;;;1.45;;
74383;SDS011;62824;52.994;-3.936;2022-12-29T08:57:26;3.83;;;1.02;;
74383;SDS011;62824;52.994;-3.936;2022-12-29T08:59:52;3.38;;;1.55;;
74383;SDS011;62824;52.994;-3.936;2022-12-29T09:02:18;7.32;;;2.05;;
74383;SDS011;62824;52.994;-3.936;2022-12-29T09:04:43;8.77;;;1.17;;
74383;SDS011;62824;52.994;-3.936;2022-12-29T09:07:09;7.78;;;1.40;;
74383;SDS011;62824;52.994;-3.936;2022-12-29T09:09:35;7.22;;;1.42;;
74383;SDS011;62824;52.994;-3.936;2022-12-29T09:12:00;8.80;;;1.35;;
74383;SDS011;62824;52.994;-3.936;2022-12-29T09:14:26;5.25;;;1.27;;
74383;SDS011;62824;52.994;-3.936;2022-12-29T09:16:53;5.20;;;1.17;;
74383;SDS011;62824;52.994;-3.936;2022-12-29T09:22:55;17.88;;;2.75;;
74383;SDS011;62824;52.994;-3.936;2022-12-29T09:25:21;5.53;;;1.13;;
74383;SDS011;62824;52.994;-3.936;2022-12-29T09:27:49;3.88;;;1.30;;
74383;SDS011;62824;52.994;-3.936;2022-12-29T09:30:17;7.50;;;1.83;;
74383;SDS011;62824;52.994;-3.936;2022-12-29T09:32:44;8.23;;;1.45;;
74383;SDS011;62824;52.994;-3.936;2022-12-29T09:35:10;7.07;;;1.25;;
74383;SDS011;62824;52.994;-3.936;2022-12-29T09:37:36;6.03;;;1.40;;
74383;SDS011;62824;52.994;-3.936;2022-12-29T09:40:02;6.00;;;1.65;;
74383;SDS011;62824;52.994;-3.936;2022-12-29T09:42:38;5.40;;;1.08;;
74383;SDS011;62824;52.994;-3.936;2022-12-29T09:45:16;3.58;;;1.90;;
74383;SDS011;62824;52.994;-3.936;2022-12-29T09:47:50;9.65;;;1.67;;
74383;SDS011;62824;52.994;-3.936;2022-12-29T09:55:48;6.85;;;1.48;;
74383;SDS011;62824;52.994;-3.936;2022-12-29T09:58:24;3.67;;;1.33;;
74383;SDS011;62824;52.994;-3.936;2022-12-29T10:01:03;7.60;;;2.40;;
74383;SDS011;62824;52.994;-3.936;2022-12-29T10:12:53;6.22;;;1.33;;
74383;SDS011;62824;52.994;-3.936;2022-12-29T10:15:39;4.90;;;1.45;;
74383;SDS011;62824;52.994;-3.936;2022-12-29T10:20:53;6.72;;;1.50;;
74383;SDS011;62824;52.994;-3.936;2022-12-29T10:25:55;5.30;;;0.95;;
74383;SDS011;62824;52.994;-3.936;2022-12-29T10:28:23;10.18;;;1.83;;
74383;SDS011;62824;52.994;-3.936;2022-12-29T10:31:13;5.30;;;2.20;;
74383;SDS011;62824;52.994;-3.936;2022-12-29T10:33:45;5.68;;;1.77;;
74383;SDS011;62824;52.994;-3.936;2022-12-29T10:36:27;8.90;;;2.42;;
74383;SDS011;62824;52.994;-3.936;2022-12-29T10:39:10;13.73;;;1.75;;
74383;SDS011;62824;52.994;-3.936;2022-12-29T10:44:36;7.10;;;1.20;;
74383;SDS011;62824;52.994;-3.936;2022-12-29T10:47:03;8.00;;;1.38;;
74383;SDS011;62824;52.994;-3.936;2022-12-29T10:53:02;5.55;;;1.63;;
74383;SDS011;62824;52.994;-3.936;2022-12-29T10:55:32;5.95;;;1.10;;
74383;SDS011;62824;52.994;-3.936;2022-12-29T10:58:04;4.13;;;1.27;;
74383;SDS011;62824;52.994;-3.936;2022-12-29T11:00:32;10.30;;;1.42;;
74383;SDS011;62824;52.994;-3.936;2022-12-29T11:06:12;11.13;;;1.70;;
74383;SDS011;62824;52.994;-3.936;2022-12-29T11:09:02;3.67;;;1.23;;
74383;SDS011;62824;52.994;-3.936;2022-12-29T11:11:47;5.25;;;1.60;;
74383;SDS011;62824;52.994;-3.936;2022-12-29T11:14:14;4.93;;;1.30;;
74383;SDS011;62824;52.994;-3.936;2022-12-29T11:16:44;11.25;;;1.52;;
74383;SDS011;62824;52.994;-3.936;2022-12-29T11:19:24;6.43;;;1.52;;
74383;SDS011;62824;52.994;-3.936;2022-12-29T11:21:52;8.13;;;1.50;;
74383;SDS011;62824;52.994;-3.936;2022-12-29T11:24:20;8.10;;;1.50;;
74383;SDS011;62824;52.994;-3.936;2022-12-29T11:26:54;6.05;;;1.65;;
74383;SDS011;62824;52.994;-3.936;2022-12-29T11:33:02;6.10;;;1.70;;
74383;SDS011;62824;52.994;-3.936;2022-12-29T11:35:30;12.45;;;1.60;;
74383;SDS011;62824;52.994;-3.936;2022-12-29T11:38:02;10.95;;;1.75;;
74383;SDS011;62824;52.994;-3.936;2022-12-29T11:40:30;11.48;;;2.25;;
74383;SDS011;62824;52.994;-3.936;2022-12-29T11:43:02;5.68;;;1.50;;
74383;SDS011;62824;52.994;-3.936;2022-12-29T11:45:35;2.80;;;1.30;;
74383;SDS011;62824;52.994;-3.936;2022-12-29T11:48:06;6.80;;;1.23;;
74383;SDS011;62824;52.994;-3.936;2022-12-29T11:50:36;10.05;;;2.13;;
74383;SDS011;62824;52.994;-3.936;2022-12-29T11:53:14;10.48;;;1.60;;
74383;SDS011;62824;52.994;-3.936;2022-12-29T11:55:51;5.32;;;1.70;;
74383;SDS011;62824;52.994;-3.936;2022-12-29T11:58:29;6.25;;;1.27;;
74383;SDS011;62824;52.994;-3.936;2022-12-29T12:01:07;5.40;;;1.60;;
74383;SDS011;62824;52.994;-3.936;2022-12-29T12:03:52;10.57;;;1.30;;
74383;SDS011;62824;52.994;-3.936;2022-12-29T12:06:24;5.10;;;1.35;;
74383;SDS011;62824;52.994;-3.936;2022-12-29T12:08:56;6.07;;;1.27;;
74383;SDS011;62824;52.994;-3.936;2022-12-29T12:11:44;10.40;;;2.20;;
74383;SDS011;62824;52.994;-3.936;2022-12-29T12:16:39;9.98;;;2.45;;
74383;SDS011;62824;52.994;-3.936;2022-12-29T12:25:11;4.38;;;2.08;;
74383;SDS011;62824;52.994;-3.936;2022-12-29T12:30:19;6.70;;;1.42;;
74383;SDS011;62824;52.994;-3.936;2022-12-29T12:38:13;6.25;;;1.40;;
74383;SDS011;62824;52.994;-3.936;2022-12-29T12:59:30;3.25;;;1.10;;
74383;SDS011;62824;52.994;-3.936;2022-12-29T13:07:21;7.32;;;1.30;;
74383;SDS011;62824;52.994;-3.936;2022-12-29T13:18:02;7.13;;;2.47;;
74383;SDS011;62824;52.994;-3.936;2022-12-29T13:26:26;9.18;;;1.38;;
74383;SDS011;62824;52.994;-3.936;2022-12-29T13:34:37;6.63;;;2.83;;
74383;SDS011;62824;52.994;-3.936;2022-12-29T13:37:13;10.98;;;1.98;;
74383;SDS011;62824;52.994;-3.936;2022-12-29T13:39:43;6.35;;;2.60;;
74383;SDS011;62824;52.994;-3.936;2022-12-29T13:42:14;8.10;;;2.20;;
74383;SDS011;62824;52.994;-3.936;2022-12-29T13:47:36;7.72;;;1.48;;
74383;SDS011;62824;52.994;-3.936;2022-12-29T13:50:18;7.70;;;1.33;;
74383;SDS011;62824;52.994;-3.936;2022-12-29T14:00:56;8.07;;;1.75;;
74383;SDS011;62824;52.994;-3.936;2022-12-29T14:03:45;4.13;;;1.45;;
74383;SDS011;62824;52.994;-3.936;2022-12-29T14:06:23;7.45;;;1.55;;
74383;SDS011;62824;52.994;-3.936;2022-12-29T14:09:03;5.88;;;1.20;;
74383;SDS011;62824;52.994;-3.936;2022-12-29T14:11:38;9.13;;;1.80;;
74383;SDS011;62824;52.994;-3.936;2022-12-29T14:14:13;4.22;;;1.35;;
74383;SDS011;62824;52.994;-3.936;2022-12-29T14:16:45;7.50;;;1.80;;
74383;SDS011;62824;52.994;-3.936;2022-12-29T14:19:16;6.45;;;1.70;;
74383;SDS011;62824;52.994;-3.936;2022-12-29T14:21:54;6.88;;;2.10;;
74383;SDS011;62824;52.994;-3.936;2022-12-29T14:29:53;4.22;;;1.60;;
74383;SDS011;62824;52.994;-3.936;2022-12-29T14:34:52;5.45;;;1.40;;
74383;SDS011;62824;52.994;-3.936;2022-12-29T14:42:29;6.30;;;1.50;;
74383;SDS011;62824;52.994;-3.936;2022-12-29T14:47:31;9.48;;;1.88;;
74383;SDS011;62824;52.994;-3.936;2022-12-29T14:52:46;6.18;;;1.00;;
74383;SDS011;62824;52.994;-3.936;2022-12-29T14:57:43;3.88;;;1.33;;
74383;SDS011;62824;52.994;-3.936;2022-12-29T15:00:16;6.47;;;2.08;;
74383;SDS011;62824;52.994;-3.936;2022-12-29T15:02:46;6.05;;;1.30;;
74383;SDS011;62824;52.994;-3.936;2022-12-29T15:05:40;7.97;;;2.75;;
74383;SDS011;62824;52.994;-3.936;2022-12-29T15:08:12;11.38;;;2.80;;
74383;SDS011;62824;52.994;-3.936;2022-12-29T15:11:41;6.90;;;2.58;;
74383;SDS011;62824;52.994;-3.936;2022-12-29T15:13:47;9.25;;;1.42;;
74383;SDS011;62824;52.994;-3.936;2022-12-29T15:16:22;6.10;;;1.70;;
74383;SDS011;62824;52.994;-3.936;2022-12-29T15:21:14;3.92;;;1.63;;
74383;SDS011;62824;52.994;-3.936;2022-12-29T15:23:42;3.22;;;1.80;;
74383;SDS011;62824;52.994;-3.936;2022-12-29T15:26:10;5.30;;;1.40;;
74383;SDS011;62824;52.994;-3.936;2022-12-29T15:28:46;3.97;;;1.52;;
74383;SDS011;62824;52.994;-3.936;2022-12-29T15:31:19;4.15;;;1.67;;
74383;SDS011;62824;52.994;-3.936;2022-12-29T15:33:52;4.60;;;1.60;;
74383;SDS011;62824;52.994;-3.936;2022-12-29T15:36:24;4.55;;;1.60;;
74383;SDS011;62824;52.994;-3.936;2022-12-29T15:38:52;3.25;;;1.20;;
74383;SDS011;62824;52.994;-3.936;2022-12-29T15:44:45;4.28;;;1.20;;
74383;SDS011;62824;52.994;-3.936;2022-12-29T15:47:15;4.13;;;1.70;;
74383;SDS011;62824;52.994;-3.936;2022-12-29T15:49:53;3.83;;;0.80;;
74383;SDS011;62824;52.994;-3.936;2022-12-29T15:52:24;7.70;;;1.75;;
74383;SDS011;62824;52.994;-3.936;2022-12-29T15:54:51;9.68;;;2.70;;
74383;SDS011;62824;52.994;-3.936;2022-12-29T15:57:36;3.65;;;1.80;;
74383;SDS011;62824;52.994;-3.936;2022-12-29T16:00:26;6.30;;;2.03;;
74383;SDS011;62824;52.994;-3.936;2022-12-29T16:02:57;6.90;;;1.50;;
74383;SDS011;62824;52.994;-3.936;2022-12-29T16:05:35;11.55;;;2.80;;
74383;SDS011;62824;52.994;-3.936;2022-12-29T16:08:20;7.85;;;2.85;;
74383;SDS011;62824;52.994;-3.936;2022-12-29T16:10:57;7.20;;;2.28;;
74383;SDS011;62824;52.994;-3.936;2022-12-29T16:13:28;7.68;;;2.78;;
74383;SDS011;62824;52.994;-3.936;2022-12-29T16:16:37;5.38;;;2.28;;
74383;SDS011;62824;52.994;-3.936;2022-12-29T16:19:00;6.18;;;1.73;;
74383;SDS011;62824;52.994;-3.936;2022-12-29T16:21:50;3.63;;;1.40;;
74383;SDS011;62824;52.994;-3.936;2022-12-29T16:24:26;8.57;;;2.03;;
74383;SDS011;62824;52.994;-3.936;2022-12-29T16:30:29;7.40;;;1.70;;
74383;SDS011;62824;52.994;-3.936;2022-12-29T16:41:55;5.22;;;2.22;;
74383;SDS011;62824;52.994;-3.936;2022-12-29T16:49:28;3.30;;;1.40;;
74383;SDS011;62824;52.994;-3.936;2022-12-29T16:51:56;4.65;;;1.45;;
74383;SDS011;62824;52.994;-3.936;2022-12-29T16:54:28;6.20;;;1.88;;
74383;SDS011;62824;52.994;-3.936;2022-12-29T16:56:58;4.80;;;1.70;;
74383;SDS011;62824;52.994;-3.936;2022-12-29T17:02:00;3.85;;;1.45;;
74383;SDS011;62824;52.994;-3.936;2022-12-29T17:04:32;5.20;;;1.50;;
74383;SDS011;62824;52.994;-3.936;2022-12-29T17:06:58;6.05;;;1.42;;
74383;SDS011;62824;52.994;-3.936;2022-12-29T17:09:25;6.07;;;1.70;;
74383;SDS011;62824;52.994;-3.936;2022-12-29T17:11:52;4.13;;;1.40;;
74383;SDS011;62824;52.994;-3.936;2022-12-29T17:14:28;8.27;;;2.38;;
74383;SDS011;62824;52.994;-3.936;2022-12-29T17:17:13;3.72;;;2.10;;
74383;SDS011;62824;52.994;-3.936;2022-12-29T17:19:45;6.53;;;1.67;;
74383;SDS011;62824;52.994;-3.936;2022-12-29T17:22:20;5.00;;;1.80;;
74383;SDS011;62824;52.994;-3.936;2022-12-29T17:24:52;5.70;;;2.65;;
74383;SDS011;62824;52.994;-3.936;2022-12-29T17:27:29;4.85;;;1.98;;
74383;SDS011;62824;52.994;-3.936;2022-12-29T17:30:09;4.82;;;1.85;;
74383;SDS011;62824;52.994;-3.936;2022-12-29T17:32:36;6.55;;;1.90;;
74383;SDS011;62824;52.994;-3.936;2022-12-29T17:35:02;6.85;;;1.88;;
74383;SDS011;62824;52.994;-3.936;2022-12-29T17:39:59;5.82;;;1.80;;
74383;SDS011;62824;52.994;-3.936;2022-12-29T17:42:25;4.57;;;1.50;;
74383;SDS011;62824;52.994;-3.936;2022-12-29T17:44:51;8.32;;;1.55;;
74383;SDS011;62824;52.994;-3.936;2022-12-29T17:47:16;7.70;;;1.88;;
74383;SDS011;62824;52.994;-3.936;2022-12-29T17:49:42;10.00;;;1.80;;
74383;SDS011;62824;52.994;-3.936;2022-12-29T17:52:11;6.32;;;1.80;;
74383;SDS011;62824;52.994;-3.936;2022-12-29T17:54:41;9.48;;;2.70;;
74383;SDS011;62824;52.994;-3.936;2022-12-29T17:57:15;7.20;;;2.60;;
74383;SDS011;62824;52.994;-3.936;2022-12-29T17:59:42;8.13;;;2.85;;
74383;SDS011;62824;52.994;-3.936;2022-12-29T18:04:49;8.93;;;2.05;;
74383;SDS011;62824;52.994;-3.936;2022-12-29T18:07:15;9.18;;;2.38;;
74383;SDS011;62824;52.994;-3.936;2022-12-29T18:09:41;8.30;;;3.20;;
74383;SDS011;62824;52.994;-3.936;2022-12-29T18:12:11;8.13;;;2.08;;
74383;SDS011;62824;52.994;-3.936;2022-12-29T18:14:56;5.97;;;2.00;;
74383;SDS011;62824;52.994;-3.936;2022-12-29T18:17:22;10.00;;;2.10;;
74383;SDS011;62824;52.994;-3.936;2022-12-29T18:19:48;7.53;;;2.42;;
74383;SDS011;62824;52.994;-3.936;2022-12-29T18:22:16;11.10;;;1.50;;
74383;SDS011;62824;52.994;-3.936;2022-12-29T18:24:42;7.32;;;2.25;;
74383;SDS011;62824;52.994;-3.936;2022-12-29T18:27:11;6.13;;;1.98;;
74383;SDS011;62824;52.994;-3.936;2022-12-29T18:29:38;7.68;;;1.70;;